sensor_id;sensor_type;location;lat;lon;timestamp;temperature;humidity
49236;DHT22;35067;48.134;8.378;2024-02-21T00:00:07;2.50;99.90
49236;DHT22;35067;48.134;8.378;2024-02-21T00:01:08;2.50;99.90
49236;DHT22;35067;48.134;8.378;2024-02-21T00:02:09;2.40;99.90
49236;DHT22;35067;48.134;8.378;2024-02-21T00:03:09;2.40;99.90
49236;DHT22;35067;48.134;8.378;2024-02-21T00:04:10;2.40;99.90
49236;DHT22;35067;48.134;8.378;2024-02-21T00:05:11;2.40;99.90
49236;DHT22;35067;48.134;8.378;2024-02-21T00:06:11;2.40;99.90
49236;DHT22;35067;48.134;8.378;2024-02-21T00:07:12;2.50;99.90
49236;DHT22;35067;48.134;8.378;2024-02-21T00:08:13;2.50;99.90
49236;DHT22;35067;48.134;8.378;2024-02-21T00:09:13;2.50;99.90
49236;DHT22;35067;48.134;8.378;2024-02-21T00:10:14;2.50;99.90
49236;DHT22;35067;48.134;8.378;2024-02-21T00:11:15;2.50;99.90
49236;DHT22;35067;48.134;8.378;2024-02-21T00:12:15;2.50;99.90
49236;DHT22;35067;48.134;8.378;2024-02-21T00:13:16;2.50;99.90
49236;DHT22;35067;48.134;8.378;2024-02-21T00:14:17;2.50;99.90
49236;DHT22;35067;48.134;8.378;2024-02-21T00:15:18;2.60;99.90
49236;DHT22;35067;48.134;8.378;2024-02-21T00:16:18;2.50;99.90
49236;DHT22;35067;48.134;8.378;2024-02-21T00:17:19;2.50;99.90
49236;DHT22;35067;48.134;8.378;2024-02-21T00:18:20;2.50;99.90
49236;DHT22;35067;48.134;8.378;2024-02-21T00:19:20;2.50;99.90
49236;DHT22;35067;48.134;8.378;2024-02-21T00:20:21;2.60;99.90
49236;DHT22;35067;48.134;8.378;2024-02-21T00:21:22;2.50;99.90
49236;DHT22;35067;48.134;8.378;2024-02-21T00:22:23;2.50;99.90
49236;DHT22;35067;48.134;8.378;2024-02-21T00:23:23;2.50;99.90
49236;DHT22;35067;48.134;8.378;2024-02-21T00:24:24;2.40;99.90
49236;DHT22;35067;48.134;8.378;2024-02-21T00:25:25;2.50;99.90
49236;DHT22;35067;48.134;8.378;2024-02-21T00:26:25;2.40;99.90
49236;DHT22;35067;48.134;8.378;2024-02-21T00:27:26;2.40;99.90
49236;DHT22;35067;48.134;8.378;2024-02-21T00:28:27;2.40;99.90
49236;DHT22;35067;48.134;8.378;2024-02-21T00:29:27;2.50;99.90
49236;DHT22;35067;48.134;8.378;2024-02-21T00:30:28;2.50;99.90
49236;DHT22;35067;48.134;8.378;2024-02-21T00:31:29;2.50;99.90
49236;DHT22;35067;48.134;8.378;2024-02-21T00:32:29;2.60;99.90
49236;DHT22;35067;48.134;8.378;2024-02-21T00:33:30;2.60;99.90
49236;DHT22;35067;48.134;8.378;2024-02-21T00:34:31;2.60;99.90
49236;DHT22;35067;48.134;8.378;2024-02-21T00:35:32;2.70;99.90
49236;DHT22;35067;48.134;8.378;2024-02-21T00:36:32;2.70;99.90
49236;DHT22;35067;48.134;8.378;2024-02-21T00:37:33;2.70;99.90
49236;DHT22;35067;48.134;8.378;2024-02-21T00:38:33;2.70;99.90
49236;DHT22;35067;48.134;8.378;2024-02-21T00:39:34;2.70;99.90
49236;DHT22;35067;48.134;8.378;2024-02-21T00:40:35;2.60;99.90
49236;DHT22;35067;48.134;8.378;2024-02-21T00:41:35;2.60;99.90
49236;DHT22;35067;48.134;8.378;2024-02-21T00:42:37;2.70;99.90
49236;DHT22;35067;48.134;8.378;2024-02-21T00:43:38;2.60;99.90
49236;DHT22;35067;48.134;8.378;2024-02-21T00:44:38;2.90;99.90
49236;DHT22;35067;48.134;8.378;2024-02-21T00:45:39;2.60;99.90
49236;DHT22;35067;48.134;8.378;2024-02-21T00:46:40;2.60;99.90
49236;DHT22;35067;48.134;8.378;2024-02-21T00:47:40;2.70;99.90
49236;DHT22;35067;48.134;8.378;2024-02-21T00:48:41;2.70;99.90
49236;DHT22;35067;48.134;8.378;2024-02-21T00:49:42;2.70;99.90
49236;DHT22;35067;48.134;8.378;2024-02-21T00:50:42;2.70;99.90
49236;DHT22;35067;48.134;8.378;2024-02-21T00:51:43;2.60;99.90
49236;DHT22;35067;48.134;8.378;2024-02-21T00:52:44;2.70;99.90
49236;DHT22;35067;48.134;8.378;2024-02-21T00:53:45;2.80;99.90
49236;DHT22;35067;48.134;8.378;2024-02-21T00:54:45;2.70;99.90
49236;DHT22;35067;48.134;8.378;2024-02-21T00:55:46;2.70;99.90
49236;DHT22;35067;48.134;8.378;2024-02-21T00:56:47;2.70;99.90
49236;DHT22;35067;48.134;8.378;2024-02-21T00:57:47;2.60;99.90
49236;DHT22;35067;48.134;8.378;2024-02-21T00:58:48;2.60;99.90
49236;DHT22;35067;48.134;8.378;2024-02-21T00:59:49;2.70;99.90
49236;DHT22;35067;48.134;8.378;2024-02-21T01:00:49;2.80;99.90
49236;DHT22;35067;48.134;8.378;2024-02-21T01:01:50;2.80;99.90
49236;DHT22;35067;48.134;8.378;2024-02-21T01:02:51;2.90;99.90
49236;DHT22;35067;48.134;8.378;2024-02-21T01:03:51;2.90;99.90
49236;DHT22;35067;48.134;8.378;2024-02-21T01:04:55;2.90;99.90
49236;DHT22;35067;48.134;8.378;2024-02-21T01:05:55;2.80;99.90
49236;DHT22;35067;48.134;8.378;2024-02-21T01:06:56;2.70;99.90
49236;DHT22;35067;48.134;8.378;2024-02-21T01:07:57;2.70;99.90
49236;DHT22;35067;48.134;8.378;2024-02-21T01:08:57;2.80;99.90
49236;DHT22;35067;48.134;8.378;2024-02-21T01:09:58;2.80;99.90
49236;DHT22;35067;48.134;8.378;2024-02-21T01:10:59;2.80;99.90
49236;DHT22;35067;48.134;8.378;2024-02-21T01:11:59;2.80;99.90
49236;DHT22;35067;48.134;8.378;2024-02-21T01:13:00;2.90;99.90
49236;DHT22;35067;48.134;8.378;2024-02-21T01:14:01;2.90;99.90
49236;DHT22;35067;48.134;8.378;2024-02-21T01:15:01;2.90;99.90
49236;DHT22;35067;48.134;8.378;2024-02-21T01:16:02;2.80;99.90
49236;DHT22;35067;48.134;8.378;2024-02-21T01:17:03;2.90;99.90
49236;DHT22;35067;48.134;8.378;2024-02-21T01:18:06;2.90;99.90
49236;DHT22;35067;48.134;8.378;2024-02-21T01:19:07;2.90;99.90
49236;DHT22;35067;48.134;8.378;2024-02-21T01:20:08;2.90;99.90
49236;DHT22;35067;48.134;8.378;2024-02-21T01:21:09;2.90;99.90
49236;DHT22;35067;48.134;8.378;2024-02-21T01:22:10;2.80;99.90
49236;DHT22;35067;48.134;8.378;2024-02-21T01:23:11;2.90;99.90
49236;DHT22;35067;48.134;8.378;2024-02-21T01:24:11;2.80;99.90
49236;DHT22;35067;48.134;8.378;2024-02-21T01:25:12;2.80;99.90
49236;DHT22;35067;48.134;8.378;2024-02-21T01:26:13;2.70;99.90
49236;DHT22;35067;48.134;8.378;2024-02-21T01:27:15;2.80;99.90
49236;DHT22;35067;48.134;8.378;2024-02-21T01:28:17;2.80;99.90
49236;DHT22;35067;48.134;8.378;2024-02-21T01:29:18;2.80;99.90
49236;DHT22;35067;48.134;8.378;2024-02-21T01:30:19;2.80;99.90
49236;DHT22;35067;48.134;8.378;2024-02-21T01:31:20;2.80;99.90
49236;DHT22;35067;48.134;8.378;2024-02-21T01:32:22;2.80;99.90
49236;DHT22;35067;48.134;8.378;2024-02-21T01:33:24;2.80;99.90
49236;DHT22;35067;48.134;8.378;2024-02-21T01:34:25;2.80;99.90
49236;DHT22;35067;48.134;8.378;2024-02-21T01:35:26;2.70;99.90
49236;DHT22;35067;48.134;8.378;2024-02-21T01:36:26;2.70;99.90
49236;DHT22;35067;48.134;8.378;2024-02-21T01:37:27;2.70;99.90
49236;DHT22;35067;48.134;8.378;2024-02-21T01:38:28;2.70;99.90
49236;DHT22;35067;48.134;8.378;2024-02-21T01:39:29;2.70;99.90
49236;DHT22;35067;48.134;8.378;2024-02-21T01:40:30;2.70;99.90
49236;DHT22;35067;48.134;8.378;2024-02-21T01:41:31;2.80;99.90
49236;DHT22;35067;48.134;8.378;2024-02-21T01:42:32;2.80;99.90
49236;DHT22;35067;48.134;8.378;2024-02-21T01:43:32;2.80;99.90
49236;DHT22;35067;48.134;8.378;2024-02-21T01:44:33;2.80;99.90
49236;DHT22;35067;48.134;8.378;2024-02-21T01:45:34;2.90;99.90
49236;DHT22;35067;48.134;8.378;2024-02-21T01:46:34;2.80;99.90
49236;DHT22;35067;48.134;8.378;2024-02-21T01:47:37;2.90;99.90
49236;DHT22;35067;48.134;8.378;2024-02-21T01:48:37;2.90;99.90
49236;DHT22;35067;48.134;8.378;2024-02-21T01:49:39;2.90;99.90
49236;DHT22;35067;48.134;8.378;2024-02-21T01:50:46;2.90;99.90
49236;DHT22;35067;48.134;8.378;2024-02-21T01:51:47;3.00;99.90
49236;DHT22;35067;48.134;8.378;2024-02-21T01:52:49;3.00;99.90
49236;DHT22;35067;48.134;8.378;2024-02-21T01:53:51;3.00;99.90
49236;DHT22;35067;48.134;8.378;2024-02-21T01:54:52;3.10;99.90
49236;DHT22;35067;48.134;8.378;2024-02-21T01:55:53;3.10;99.90
49236;DHT22;35067;48.134;8.378;2024-02-21T01:56:54;3.10;99.90
49236;DHT22;35067;48.134;8.378;2024-02-21T01:57:55;3.20;99.90
49236;DHT22;35067;48.134;8.378;2024-02-21T01:58:56;3.10;99.90
49236;DHT22;35067;48.134;8.378;2024-02-21T01:59:56;3.10;99.90
49236;DHT22;35067;48.134;8.378;2024-02-21T02:00:57;3.20;99.90
49236;DHT22;35067;48.134;8.378;2024-02-21T02:01:58;3.20;99.90
49236;DHT22;35067;48.134;8.378;2024-02-21T02:03:00;3.20;99.90
49236;DHT22;35067;48.134;8.378;2024-02-21T02:04:01;3.20;99.90
49236;DHT22;35067;48.134;8.378;2024-02-21T02:05:02;3.20;99.90
49236;DHT22;35067;48.134;8.378;2024-02-21T02:06:05;3.20;99.90
49236;DHT22;35067;48.134;8.378;2024-02-21T02:07:07;3.30;99.90
49236;DHT22;35067;48.134;8.378;2024-02-21T02:08:08;3.10;99.90
49236;DHT22;35067;48.134;8.378;2024-02-21T02:09:09;3.10;99.90
49236;DHT22;35067;48.134;8.378;2024-02-21T02:10:09;3.10;99.90
49236;DHT22;35067;48.134;8.378;2024-02-21T02:11:10;3.10;99.90
49236;DHT22;35067;48.134;8.378;2024-02-21T02:12:14;3.10;99.90
49236;DHT22;35067;48.134;8.378;2024-02-21T02:13:15;3.20;99.90
49236;DHT22;35067;48.134;8.378;2024-02-21T02:14:16;3.20;99.90
49236;DHT22;35067;48.134;8.378;2024-02-21T02:15:16;3.20;99.90
49236;DHT22;35067;48.134;8.378;2024-02-21T02:16:17;3.20;99.90
49236;DHT22;35067;48.134;8.378;2024-02-21T02:17:18;3.10;99.90
49236;DHT22;35067;48.134;8.378;2024-02-21T02:18:20;3.00;99.90
49236;DHT22;35067;48.134;8.378;2024-02-21T02:19:20;3.00;99.90
49236;DHT22;35067;48.134;8.378;2024-02-21T02:20:21;3.00;99.90
49236;DHT22;35067;48.134;8.378;2024-02-21T02:21:38;3.00;99.90
49236;DHT22;35067;48.134;8.378;2024-02-21T02:22:42;2.90;99.90
49236;DHT22;35067;48.134;8.378;2024-02-21T02:23:43;2.90;99.90
49236;DHT22;35067;48.134;8.378;2024-02-21T02:24:44;3.00;99.90
49236;DHT22;35067;48.134;8.378;2024-02-21T02:25:45;2.90;99.90
49236;DHT22;35067;48.134;8.378;2024-02-21T02:26:49;2.90;99.90
49236;DHT22;35067;48.134;8.378;2024-02-21T02:27:50;2.90;99.90
49236;DHT22;35067;48.134;8.378;2024-02-21T02:28:50;2.90;99.90
49236;DHT22;35067;48.134;8.378;2024-02-21T02:29:51;2.90;99.90
49236;DHT22;35067;48.134;8.378;2024-02-21T02:30:52;2.80;99.90
49236;DHT22;35067;48.134;8.378;2024-02-21T02:31:53;2.90;99.90
49236;DHT22;35067;48.134;8.378;2024-02-21T02:32:54;2.80;99.90
49236;DHT22;35067;48.134;8.378;2024-02-21T02:33:54;2.80;99.90
49236;DHT22;35067;48.134;8.378;2024-02-21T02:34:55;2.80;99.90
49236;DHT22;35067;48.134;8.378;2024-02-21T02:35:56;2.90;99.90
49236;DHT22;35067;48.134;8.378;2024-02-21T02:36:59;2.90;99.90
49236;DHT22;35067;48.134;8.378;2024-02-21T02:37:59;2.80;99.90
49236;DHT22;35067;48.134;8.378;2024-02-21T02:39:00;2.80;99.90
49236;DHT22;35067;48.134;8.378;2024-02-21T02:40:01;2.90;99.90
49236;DHT22;35067;48.134;8.378;2024-02-21T02:41:01;2.90;99.90
49236;DHT22;35067;48.134;8.378;2024-02-21T02:42:02;2.90;99.90
49236;DHT22;35067;48.134;8.378;2024-02-21T02:43:03;2.90;99.90
49236;DHT22;35067;48.134;8.378;2024-02-21T02:44:04;3.00;99.90
49236;DHT22;35067;48.134;8.378;2024-02-21T02:45:05;2.90;99.90
49236;DHT22;35067;48.134;8.378;2024-02-21T02:46:06;2.90;99.90
49236;DHT22;35067;48.134;8.378;2024-02-21T02:47:08;2.90;99.90
49236;DHT22;35067;48.134;8.378;2024-02-21T02:48:09;3.00;99.90
49236;DHT22;35067;48.134;8.378;2024-02-21T02:49:09;3.00;99.90
49236;DHT22;35067;48.134;8.378;2024-02-21T02:50:10;3.00;99.90
49236;DHT22;35067;48.134;8.378;2024-02-21T02:51:11;2.90;99.90
49236;DHT22;35067;48.134;8.378;2024-02-21T02:52:12;2.90;99.90
49236;DHT22;35067;48.134;8.378;2024-02-21T02:53:13;2.80;99.90
49236;DHT22;35067;48.134;8.378;2024-02-21T02:54:13;2.90;99.90
49236;DHT22;35067;48.134;8.378;2024-02-21T02:55:14;2.90;99.90
49236;DHT22;35067;48.134;8.378;2024-02-21T02:56:15;2.90;99.90
49236;DHT22;35067;48.134;8.378;2024-02-21T02:57:16;2.90;99.90
49236;DHT22;35067;48.134;8.378;2024-02-21T02:58:17;3.00;99.90
49236;DHT22;35067;48.134;8.378;2024-02-21T02:59:18;3.00;99.90
49236;DHT22;35067;48.134;8.378;2024-02-21T03:00:19;2.90;99.90
49236;DHT22;35067;48.134;8.378;2024-02-21T03:01:20;2.90;99.90
49236;DHT22;35067;48.134;8.378;2024-02-21T03:02:20;2.80;99.90
49236;DHT22;35067;48.134;8.378;2024-02-21T03:03:21;2.80;99.90
49236;DHT22;35067;48.134;8.378;2024-02-21T03:04:22;2.90;99.90
49236;DHT22;35067;48.134;8.378;2024-02-21T03:05:22;2.80;99.90
49236;DHT22;35067;48.134;8.378;2024-02-21T03:06:23;2.90;99.90
49236;DHT22;35067;48.134;8.378;2024-02-21T03:07:25;2.90;99.90
49236;DHT22;35067;48.134;8.378;2024-02-21T03:08:25;3.00;99.90
49236;DHT22;35067;48.134;8.378;2024-02-21T03:09:26;3.00;99.90
49236;DHT22;35067;48.134;8.378;2024-02-21T03:10:28;2.90;99.90
49236;DHT22;35067;48.134;8.378;2024-02-21T03:11:29;3.00;99.90
49236;DHT22;35067;48.134;8.378;2024-02-21T03:12:30;3.00;99.90
49236;DHT22;35067;48.134;8.378;2024-02-21T03:13:30;3.10;99.90
49236;DHT22;35067;48.134;8.378;2024-02-21T03:14:32;3.10;99.90
49236;DHT22;35067;48.134;8.378;2024-02-21T03:15:33;3.20;99.90
49236;DHT22;35067;48.134;8.378;2024-02-21T03:16:33;3.10;99.90
49236;DHT22;35067;48.134;8.378;2024-02-21T03:17:34;3.20;99.90
49236;DHT22;35067;48.134;8.378;2024-02-21T03:18:35;3.20;99.90
49236;DHT22;35067;48.134;8.378;2024-02-21T03:19:36;3.20;99.90
49236;DHT22;35067;48.134;8.378;2024-02-21T03:20:36;3.20;99.90
49236;DHT22;35067;48.134;8.378;2024-02-21T03:21:37;3.10;99.90
49236;DHT22;35067;48.134;8.378;2024-02-21T03:22:38;3.10;99.90
49236;DHT22;35067;48.134;8.378;2024-02-21T03:23:38;3.10;99.90
49236;DHT22;35067;48.134;8.378;2024-02-21T03:24:39;3.00;99.90
49236;DHT22;35067;48.134;8.378;2024-02-21T03:25:40;3.00;99.90
49236;DHT22;35067;48.134;8.378;2024-02-21T03:26:40;2.90;99.90
49236;DHT22;35067;48.134;8.378;2024-02-21T03:27:41;3.00;99.90
49236;DHT22;35067;48.134;8.378;2024-02-21T03:28:42;3.00;99.90
49236;DHT22;35067;48.134;8.378;2024-02-21T03:29:44;2.90;99.90
49236;DHT22;35067;48.134;8.378;2024-02-21T03:30:45;2.80;99.90
49236;DHT22;35067;48.134;8.378;2024-02-21T03:31:45;2.90;99.90
49236;DHT22;35067;48.134;8.378;2024-02-21T03:32:46;2.90;99.90
49236;DHT22;35067;48.134;8.378;2024-02-21T03:33:47;2.90;99.90
49236;DHT22;35067;48.134;8.378;2024-02-21T03:34:47;2.80;99.90
49236;DHT22;35067;48.134;8.378;2024-02-21T03:35:48;2.80;99.90
49236;DHT22;35067;48.134;8.378;2024-02-21T03:36:49;2.70;99.90
49236;DHT22;35067;48.134;8.378;2024-02-21T03:37:49;2.70;99.90
49236;DHT22;35067;48.134;8.378;2024-02-21T03:38:50;2.70;99.90
49236;DHT22;35067;48.134;8.378;2024-02-21T03:39:51;2.70;99.90
49236;DHT22;35067;48.134;8.378;2024-02-21T03:40:51;2.70;99.90
49236;DHT22;35067;48.134;8.378;2024-02-21T03:41:52;2.70;99.90
49236;DHT22;35067;48.134;8.378;2024-02-21T03:42:53;2.70;99.90
49236;DHT22;35067;48.134;8.378;2024-02-21T03:43:53;2.70;99.90
49236;DHT22;35067;48.134;8.378;2024-02-21T03:44:54;2.70;99.90
49236;DHT22;35067;48.134;8.378;2024-02-21T03:45:55;2.70;99.90
49236;DHT22;35067;48.134;8.378;2024-02-21T03:46:55;2.60;99.90
49236;DHT22;35067;48.134;8.378;2024-02-21T03:47:56;2.60;99.90
49236;DHT22;35067;48.134;8.378;2024-02-21T03:48:57;2.50;99.90
49236;DHT22;35067;48.134;8.378;2024-02-21T03:49:57;2.40;99.90
49236;DHT22;35067;48.134;8.378;2024-02-21T03:50:59;2.40;99.90
49236;DHT22;35067;48.134;8.378;2024-02-21T03:52:00;2.40;99.90
49236;DHT22;35067;48.134;8.378;2024-02-21T03:53:01;2.30;99.90
49236;DHT22;35067;48.134;8.378;2024-02-21T03:54:01;2.40;99.90
49236;DHT22;35067;48.134;8.378;2024-02-21T03:55:02;2.50;99.90
49236;DHT22;35067;48.134;8.378;2024-02-21T03:56:04;2.30;99.90
49236;DHT22;35067;48.134;8.378;2024-02-21T03:57:05;2.40;99.90
49236;DHT22;35067;48.134;8.378;2024-02-21T03:58:06;2.50;99.90
49236;DHT22;35067;48.134;8.378;2024-02-21T03:59:07;2.40;99.90
49236;DHT22;35067;48.134;8.378;2024-02-21T04:00:08;2.50;99.90
49236;DHT22;35067;48.134;8.378;2024-02-21T04:01:11;2.40;99.90
49236;DHT22;35067;48.134;8.378;2024-02-21T04:02:12;2.40;99.90
49236;DHT22;35067;48.134;8.378;2024-02-21T04:03:13;2.40;99.90
49236;DHT22;35067;48.134;8.378;2024-02-21T04:04:14;2.40;99.90
49236;DHT22;35067;48.134;8.378;2024-02-21T04:05:16;2.30;99.90
49236;DHT22;35067;48.134;8.378;2024-02-21T04:06:17;2.30;99.90
49236;DHT22;35067;48.134;8.378;2024-02-21T04:07:19;2.30;99.90
49236;DHT22;35067;48.134;8.378;2024-02-21T04:08:19;2.40;99.90
49236;DHT22;35067;48.134;8.378;2024-02-21T04:09:20;2.40;99.90
49236;DHT22;35067;48.134;8.378;2024-02-21T04:10:21;2.40;99.90
49236;DHT22;35067;48.134;8.378;2024-02-21T04:11:21;2.40;99.90
49236;DHT22;35067;48.134;8.378;2024-02-21T04:12:22;2.30;99.90
49236;DHT22;35067;48.134;8.378;2024-02-21T04:13:23;2.40;99.90
49236;DHT22;35067;48.134;8.378;2024-02-21T04:14:24;2.50;99.90
49236;DHT22;35067;48.134;8.378;2024-02-21T04:15:24;2.50;99.90
49236;DHT22;35067;48.134;8.378;2024-02-21T04:16:25;2.50;99.90
49236;DHT22;35067;48.134;8.378;2024-02-21T04:17:25;2.50;99.90
49236;DHT22;35067;48.134;8.378;2024-02-21T04:18:26;2.50;99.90
49236;DHT22;35067;48.134;8.378;2024-02-21T04:19:27;2.60;99.90
49236;DHT22;35067;48.134;8.378;2024-02-21T04:20:28;2.60;99.90
49236;DHT22;35067;48.134;8.378;2024-02-21T04:21:28;2.50;99.90
49236;DHT22;35067;48.134;8.378;2024-02-21T04:22:29;2.50;99.90
49236;DHT22;35067;48.134;8.378;2024-02-21T04:23:30;2.50;99.90
49236;DHT22;35067;48.134;8.378;2024-02-21T04:24:30;2.50;99.90
49236;DHT22;35067;48.134;8.378;2024-02-21T04:25:31;2.50;99.90
49236;DHT22;35067;48.134;8.378;2024-02-21T04:26:32;2.60;99.90
49236;DHT22;35067;48.134;8.378;2024-02-21T04:27:33;2.60;99.90
49236;DHT22;35067;48.134;8.378;2024-02-21T04:28:34;2.60;99.90
49236;DHT22;35067;48.134;8.378;2024-02-21T04:29:35;2.60;99.90
49236;DHT22;35067;48.134;8.378;2024-02-21T04:30:36;2.60;99.90
49236;DHT22;35067;48.134;8.378;2024-02-21T04:31:37;2.50;99.90
49236;DHT22;35067;48.134;8.378;2024-02-21T04:32:37;2.50;99.90
49236;DHT22;35067;48.134;8.378;2024-02-21T04:33:38;2.50;99.90
49236;DHT22;35067;48.134;8.378;2024-02-21T04:34:41;2.40;99.90
49236;DHT22;35067;48.134;8.378;2024-02-21T04:35:42;2.40;99.90
49236;DHT22;35067;48.134;8.378;2024-02-21T04:36:42;2.40;99.90
49236;DHT22;35067;48.134;8.378;2024-02-21T04:37:43;2.40;99.90
49236;DHT22;35067;48.134;8.378;2024-02-21T04:38:45;2.40;99.90
49236;DHT22;35067;48.134;8.378;2024-02-21T04:39:46;2.40;99.90
49236;DHT22;35067;48.134;8.378;2024-02-21T04:40:46;2.30;99.90
49236;DHT22;35067;48.134;8.378;2024-02-21T04:41:47;2.40;99.90
49236;DHT22;35067;48.134;8.378;2024-02-21T04:42:48;2.40;99.90
49236;DHT22;35067;48.134;8.378;2024-02-21T04:43:48;2.40;99.90
49236;DHT22;35067;48.134;8.378;2024-02-21T04:44:49;2.40;99.90
49236;DHT22;35067;48.134;8.378;2024-02-21T04:45:50;2.30;99.90
49236;DHT22;35067;48.134;8.378;2024-02-21T04:46:51;2.20;99.90
49236;DHT22;35067;48.134;8.378;2024-02-21T04:47:51;2.20;99.90
49236;DHT22;35067;48.134;8.378;2024-02-21T04:48:52;2.20;99.90
49236;DHT22;35067;48.134;8.378;2024-02-21T04:49:53;2.30;99.90
49236;DHT22;35067;48.134;8.378;2024-02-21T04:50:54;2.20;99.90
49236;DHT22;35067;48.134;8.378;2024-02-21T04:51:54;2.30;99.90
49236;DHT22;35067;48.134;8.378;2024-02-21T04:52:55;2.30;99.90
49236;DHT22;35067;48.134;8.378;2024-02-21T04:53:56;2.20;99.90
49236;DHT22;35067;48.134;8.378;2024-02-21T04:54:57;2.20;99.90
49236;DHT22;35067;48.134;8.378;2024-02-21T04:55:57;2.10;99.90
49236;DHT22;35067;48.134;8.378;2024-02-21T04:56:58;2.10;99.90
49236;DHT22;35067;48.134;8.378;2024-02-21T04:57:59;2.10;99.90
49236;DHT22;35067;48.134;8.378;2024-02-21T04:59:02;2.00;99.90
49236;DHT22;35067;48.134;8.378;2024-02-21T05:00:03;2.00;99.90
49236;DHT22;35067;48.134;8.378;2024-02-21T05:01:04;2.00;99.90
49236;DHT22;35067;48.134;8.378;2024-02-21T05:02:05;2.10;99.90
49236;DHT22;35067;48.134;8.378;2024-02-21T05:03:06;2.00;99.90
49236;DHT22;35067;48.134;8.378;2024-02-21T05:04:06;2.00;99.90
49236;DHT22;35067;48.134;8.378;2024-02-21T05:05:07;2.10;99.90
49236;DHT22;35067;48.134;8.378;2024-02-21T05:06:08;2.10;99.90
49236;DHT22;35067;48.134;8.378;2024-02-21T05:07:09;2.00;99.90
49236;DHT22;35067;48.134;8.378;2024-02-21T05:08:11;2.00;99.90
49236;DHT22;35067;48.134;8.378;2024-02-21T05:09:12;1.90;99.90
49236;DHT22;35067;48.134;8.378;2024-02-21T05:10:12;2.00;99.90
49236;DHT22;35067;48.134;8.378;2024-02-21T05:11:13;2.00;99.90
49236;DHT22;35067;48.134;8.378;2024-02-21T05:12:14;2.20;99.90
49236;DHT22;35067;48.134;8.378;2024-02-21T05:13:15;2.10;99.90
49236;DHT22;35067;48.134;8.378;2024-02-21T05:14:16;2.10;99.90
49236;DHT22;35067;48.134;8.378;2024-02-21T05:15:16;2.00;99.90
49236;DHT22;35067;48.134;8.378;2024-02-21T05:16:17;2.00;99.90
49236;DHT22;35067;48.134;8.378;2024-02-21T05:17:19;2.00;99.90
49236;DHT22;35067;48.134;8.378;2024-02-21T05:18:20;2.00;99.90
49236;DHT22;35067;48.134;8.378;2024-02-21T05:19:21;2.00;99.90
49236;DHT22;35067;48.134;8.378;2024-02-21T05:20:21;2.00;99.90
49236;DHT22;35067;48.134;8.378;2024-02-21T05:21:23;2.00;99.90
49236;DHT22;35067;48.134;8.378;2024-02-21T05:22:24;2.00;99.90
49236;DHT22;35067;48.134;8.378;2024-02-21T05:23:25;1.90;99.90
49236;DHT22;35067;48.134;8.378;2024-02-21T05:24:25;2.00;99.90
49236;DHT22;35067;48.134;8.378;2024-02-21T05:25:26;2.00;99.90
49236;DHT22;35067;48.134;8.378;2024-02-21T05:26:28;1.90;99.90
49236;DHT22;35067;48.134;8.378;2024-02-21T05:27:29;2.00;99.90
49236;DHT22;35067;48.134;8.378;2024-02-21T05:28:29;1.90;99.90
49236;DHT22;35067;48.134;8.378;2024-02-21T05:29:30;1.90;99.90
49236;DHT22;35067;48.134;8.378;2024-02-21T05:30:31;1.90;99.90
49236;DHT22;35067;48.134;8.378;2024-02-21T05:32:51;2.00;99.90
49236;DHT22;35067;48.134;8.378;2024-02-21T05:33:51;1.90;99.90
49236;DHT22;35067;48.134;8.378;2024-02-21T05:34:52;1.80;99.90
49236;DHT22;35067;48.134;8.378;2024-02-21T05:35:53;1.80;99.90
49236;DHT22;35067;48.134;8.378;2024-02-21T05:36:53;1.80;99.90
49236;DHT22;35067;48.134;8.378;2024-02-21T05:37:54;1.90;99.90
49236;DHT22;35067;48.134;8.378;2024-02-21T05:38:55;1.90;99.90
49236;DHT22;35067;48.134;8.378;2024-02-21T05:39:56;1.90;99.90
49236;DHT22;35067;48.134;8.378;2024-02-21T05:40:56;1.80;99.90
49236;DHT22;35067;48.134;8.378;2024-02-21T05:41:58;1.90;99.90
49236;DHT22;35067;48.134;8.378;2024-02-21T05:42:58;1.80;99.90
49236;DHT22;35067;48.134;8.378;2024-02-21T05:43:59;1.80;99.90
49236;DHT22;35067;48.134;8.378;2024-02-21T05:45:00;1.90;99.90
49236;DHT22;35067;48.134;8.378;2024-02-21T05:46:01;1.80;99.90
49236;DHT22;35067;48.134;8.378;2024-02-21T05:47:01;1.90;99.90
49236;DHT22;35067;48.134;8.378;2024-02-21T05:48:03;1.90;99.90
49236;DHT22;35067;48.134;8.378;2024-02-21T05:49:04;1.90;99.90
49236;DHT22;35067;48.134;8.378;2024-02-21T05:50:05;1.90;99.90
49236;DHT22;35067;48.134;8.378;2024-02-21T05:51:06;1.80;99.90
49236;DHT22;35067;48.134;8.378;2024-02-21T05:52:07;1.80;99.90
49236;DHT22;35067;48.134;8.378;2024-02-21T05:53:07;1.80;99.90
49236;DHT22;35067;48.134;8.378;2024-02-21T05:54:08;1.80;99.90
49236;DHT22;35067;48.134;8.378;2024-02-21T05:55:09;1.80;99.90
49236;DHT22;35067;48.134;8.378;2024-02-21T05:56:13;1.80;99.90
49236;DHT22;35067;48.134;8.378;2024-02-21T05:57:14;1.80;99.90
49236;DHT22;35067;48.134;8.378;2024-02-21T05:58:15;1.80;99.90
49236;DHT22;35067;48.134;8.378;2024-02-21T05:59:15;1.70;99.90
49236;DHT22;35067;48.134;8.378;2024-02-21T06:00:16;1.70;99.90
49236;DHT22;35067;48.134;8.378;2024-02-21T06:01:17;1.70;99.90
49236;DHT22;35067;48.134;8.378;2024-02-21T06:02:18;1.70;99.90
49236;DHT22;35067;48.134;8.378;2024-02-21T06:03:19;1.70;99.90
49236;DHT22;35067;48.134;8.378;2024-02-21T06:04:19;1.60;99.90
49236;DHT22;35067;48.134;8.378;2024-02-21T06:05:20;1.60;99.90
49236;DHT22;35067;48.134;8.378;2024-02-21T06:06:21;1.40;99.90
49236;DHT22;35067;48.134;8.378;2024-02-21T06:07:22;1.40;99.90
49236;DHT22;35067;48.134;8.378;2024-02-21T06:08:22;1.50;99.90
49236;DHT22;35067;48.134;8.378;2024-02-21T06:09:23;1.40;99.90
49236;DHT22;35067;48.134;8.378;2024-02-21T06:10:24;1.40;99.90
49236;DHT22;35067;48.134;8.378;2024-02-21T06:11:24;1.40;99.90
49236;DHT22;35067;48.134;8.378;2024-02-21T06:12:25;1.40;99.90
49236;DHT22;35067;48.134;8.378;2024-02-21T06:13:26;1.30;99.90
49236;DHT22;35067;48.134;8.378;2024-02-21T06:14:27;1.30;99.90
49236;DHT22;35067;48.134;8.378;2024-02-21T06:15:27;1.30;99.90
49236;DHT22;35067;48.134;8.378;2024-02-21T06:16:28;1.20;99.90
49236;DHT22;35067;48.134;8.378;2024-02-21T06:17:29;1.10;99.90
49236;DHT22;35067;48.134;8.378;2024-02-21T06:18:30;1.10;99.90
49236;DHT22;35067;48.134;8.378;2024-02-21T06:19:31;1.10;99.90
49236;DHT22;35067;48.134;8.378;2024-02-21T06:20:31;1.10;99.90
49236;DHT22;35067;48.134;8.378;2024-02-21T06:21:32;1.20;99.90
49236;DHT22;35067;48.134;8.378;2024-02-21T06:22:32;1.20;99.90
49236;DHT22;35067;48.134;8.378;2024-02-21T06:23:33;1.30;99.90
49236;DHT22;35067;48.134;8.378;2024-02-21T06:24:35;1.20;99.90
49236;DHT22;35067;48.134;8.378;2024-02-21T06:25:36;1.30;99.90
49236;DHT22;35067;48.134;8.378;2024-02-21T06:26:37;1.30;99.90
49236;DHT22;35067;48.134;8.378;2024-02-21T06:27:38;1.20;99.90
49236;DHT22;35067;48.134;8.378;2024-02-21T06:28:38;1.20;99.90
49236;DHT22;35067;48.134;8.378;2024-02-21T06:29:39;1.20;99.90
49236;DHT22;35067;48.134;8.378;2024-02-21T06:30:40;1.20;99.90
49236;DHT22;35067;48.134;8.378;2024-02-21T06:31:41;1.20;99.90